WIF1XV ENZV-ENBR
Flight info
| Callsign | WIF1XV |
|---|---|
| Flight time | 0h 17m |
| Altitude | 12000 |
| Route | ALUVA |
| Aircraft | DH8B/M-SDFGR/S |
Departure
| Time | 2026-04-29 08:44 |
|---|---|
| Airport | Stavanger Airport, Sola (ENZV) |
Arrival
| Time | 2026-04-29 09:01 |
|---|---|
| Airport | Bergen Airport, Flesland (ENBR) |
| Time | Latitude | Longitude | Altitude | Speed | Heading |
|---|---|---|---|---|---|
| 2026-04-29 08:35 | 58.88315 | 5.63062 | 22 ft | 0 kts | 254° |
| 2026-04-29 08:39 | 58.88315 | 5.63064 | 22 ft | 2 kts | 254° |
| 2026-04-29 08:39 | 58.88319 | 5.63094 | 25 ft | 2 kts | 254° |
| 2026-04-29 08:40 | 58.88324 | 5.63125 | 23 ft | 2 kts | 254° |
| 2026-04-29 08:40 | 58.88328 | 5.63155 | 25 ft | 2 kts | 254° |
| 2026-04-29 08:40 | 58.88333 | 5.63185 | 27 ft | 2 kts | 254° |
| 2026-04-29 08:40 | 58.88337 | 5.63215 | 25 ft | 2 kts | 255° |
| 2026-04-29 08:41 | 58.88337 | 5.63219 | 25 ft | 0 kts | 255° |
| 2026-04-29 08:41 | 58.88334 | 5.63213 | 25 ft | 3 kts | 199° |
| 2026-04-29 08:41 | 58.88308 | 5.63258 | 27 ft | 7 kts | 134° |
| 2026-04-29 08:42 | 58.88278 | 5.63365 | 28 ft | 11 kts | 95° |
| 2026-04-29 08:42 | 58.88193 | 5.63432 | 26 ft | 18 kts | 180° |
| 2026-04-29 08:42 | 58.88052 | 5.63439 | 26 ft | 22 kts | 178° |
| 2026-04-29 08:42 | 58.87902 | 5.63334 | 27 ft | 22 kts | 202° |
| 2026-04-29 08:43 | 58.87788 | 5.63295 | 27 ft | 16 kts | 178° |
| 2026-04-29 08:43 | 58.87760 | 5.63253 | 27 ft | 0 kts | 284° |
| 2026-04-29 08:43 | 58.87814 | 5.62893 | 28 ft | 84 kts | 285° |
| 2026-04-29 08:43 | 58.88059 | 5.61300 | 127 ft | 150 kts | 287° |
| 2026-04-29 08:44 | 58.88364 | 5.59307 | 827 ft | 160 kts | 289° |
| 2026-04-29 08:44 | 58.88680 | 5.57180 | 1509 ft | 169 kts | 287° |
| 2026-04-29 08:44 | 58.89040 | 5.54965 | 2229 ft | 175 kts | 297° |
| 2026-04-29 08:44 | 58.89925 | 5.53390 | 2939 ft | 178 kts | 341° |
| 2026-04-29 08:45 | 58.90743 | 5.53238 | 3425 ft | 180 kts | 8° |
| 2026-04-29 08:45 | 58.92384 | 5.53635 | 4429 ft | 180 kts | 355° |
| 2026-04-29 08:45 | 58.93624 | 5.53264 | 5194 ft | 181 kts | 350° |
| 2026-04-29 08:45 | 58.94448 | 5.52987 | 5691 ft | 181 kts | 352° |
| 2026-04-29 08:46 | 58.95708 | 5.52683 | 6449 ft | 182 kts | 354° |
| 2026-04-29 08:46 | 58.96975 | 5.52410 | 7199 ft | 184 kts | 354° |
| 2026-04-29 08:46 | 58.98254 | 5.52139 | 7926 ft | 185 kts | 354° |
| 2026-04-29 08:46 | 58.99537 | 5.51869 | 8671 ft | 186 kts | 355° |
| 2026-04-29 08:47 | 59.00812 | 5.51600 | 9423 ft | 187 kts | 355° |
| 2026-04-29 08:47 | 59.02114 | 5.51325 | 10207 ft | 188 kts | 356° |
| 2026-04-29 08:47 | 59.03457 | 5.51047 | 10766 ft | 199 kts | 356° |
| 2026-04-29 08:47 | 59.04862 | 5.50761 | 11287 ft | 207 kts | 356° |
| 2026-04-29 08:48 | 59.06312 | 5.50457 | 11837 ft | 212 kts | 355° |
| 2026-04-29 08:48 | 59.07773 | 5.50148 | 12394 ft | 215 kts | 355° |
| 2026-04-29 08:48 | 59.09329 | 5.49823 | 12531 ft | 235 kts | 355° |
| 2026-04-29 08:48 | 59.11019 | 5.49465 | 12547 ft | 251 kts | 355° |
| 2026-04-29 08:49 | 59.12801 | 5.49081 | 12560 ft | 262 kts | 355° |
| 2026-04-29 08:49 | 59.14647 | 5.48685 | 12578 ft | 268 kts | 355° |
| 2026-04-29 08:49 | 59.16491 | 5.48293 | 12589 ft | 259 kts | 355° |
| 2026-04-29 08:49 | 59.18253 | 5.47929 | 12549 ft | 252 kts | 355° |
| 2026-04-29 08:50 | 59.19988 | 5.47578 | 12526 ft | 248 kts | 355° |
| 2026-04-29 08:50 | 59.21681 | 5.47228 | 12521 ft | 246 kts | 355° |
| 2026-04-29 08:50 | 59.23374 | 5.46876 | 12518 ft | 243 kts | 355° |
| 2026-04-29 08:50 | 59.25054 | 5.46520 | 12515 ft | 242 kts | 355° |
| 2026-04-29 08:51 | 59.26726 | 5.46167 | 12515 ft | 241 kts | 355° |
| 2026-04-29 08:51 | 59.28374 | 5.45819 | 12515 ft | 240 kts | 355° |
| 2026-04-29 08:51 | 59.30039 | 5.45469 | 12512 ft | 240 kts | 355° |
| 2026-04-29 08:51 | 59.31701 | 5.45120 | 12513 ft | 239 kts | 355° |
| 2026-04-29 08:52 | 59.33364 | 5.44770 | 12515 ft | 239 kts | 355° |
| 2026-04-29 08:52 | 59.36979 | 5.44012 | 12511 ft | 239 kts | 355° |
| 2026-04-29 08:52 | 59.43617 | 5.42635 | 12516 ft | 238 kts | 355° |
| 2026-04-29 08:52 | 59.50259 | 5.41220 | 12509 ft | 239 kts | 354° |
| 2026-04-29 08:53 | 59.56860 | 5.39803 | 12506 ft | 238 kts | 354° |
| 2026-04-29 08:53 | 59.63400 | 5.38389 | 12506 ft | 238 kts | 354° |
| 2026-04-29 08:53 | 59.70019 | 5.36952 | 12500 ft | 238 kts | 354° |
| 2026-04-29 08:53 | 59.73588 | 5.36177 | 12503 ft | 238 kts | 354° |
| 2026-04-29 08:54 | 59.76894 | 5.35458 | 12515 ft | 238 kts | 354° |
| 2026-04-29 08:54 | 59.80163 | 5.34746 | 12517 ft | 238 kts | 353° |
| 2026-04-29 08:54 | 59.83454 | 5.34023 | 12516 ft | 238 kts | 353° |
| 2026-04-29 08:54 | 59.86762 | 5.33300 | 12516 ft | 238 kts | 353° |
| 2026-04-29 08:55 | 59.90057 | 5.32572 | 12511 ft | 238 kts | 353° |
| 2026-04-29 08:55 | 59.93317 | 5.31857 | 12151 ft | 237 kts | 353° |
| 2026-04-29 08:55 | 59.96471 | 5.31160 | 11138 ft | 218 kts | 353° |
| 2026-04-29 08:55 | 59.99385 | 5.30520 | 10098 ft | 201 kts | 353° |
| 2026-04-29 08:56 | 60.01984 | 5.29956 | 8877 ft | 179 kts | 353° |
| 2026-04-29 08:56 | 60.04419 | 5.29416 | 7671 ft | 173 kts | 352° |
| 2026-04-29 08:56 | 60.06801 | 5.28896 | 6520 ft | 171 kts | 351° |
| 2026-04-29 08:56 | 60.09163 | 5.28372 | 5371 ft | 170 kts | 351° |
| 2026-04-29 08:57 | 60.10523 | 5.28064 | 4716 ft | 169 kts | 351° |
| 2026-04-29 08:57 | 60.11108 | 5.27927 | 4419 ft | 169 kts | 350° |
| 2026-04-29 08:57 | 60.11691 | 5.27758 | 4078 ft | 171 kts | 349° |
| 2026-04-29 08:57 | 60.12289 | 5.27567 | 3691 ft | 176 kts | 349° |
| 2026-04-29 08:58 | 60.12892 | 5.27366 | 3324 ft | 178 kts | 349° |
| 2026-04-29 08:58 | 60.13492 | 5.27163 | 3171 ft | 169 kts | 349° |
| 2026-04-29 08:58 | 60.14351 | 5.26869 | 3000 ft | 167 kts | 349° |
| 2026-04-29 08:58 | 60.16750 | 5.26065 | 2544 ft | 180 kts | 350° |
| 2026-04-29 08:59 | 60.19267 | 5.25212 | 2039 ft | 186 kts | 351° |
| 2026-04-29 08:59 | 60.21748 | 5.24375 | 1524 ft | 172 kts | 351° |
| 2026-04-29 08:59 | 60.22340 | 5.24182 | 1408 ft | 160 kts | 350° |
| 2026-04-29 08:59 | 60.22882 | 5.24002 | 1299 ft | 156 kts | 349° |
| 2026-04-29 09:00 | 60.23928 | 5.23644 | 1065 ft | 149 kts | 349° |
| 2026-04-29 09:00 | 60.24935 | 5.23309 | 862 ft | 144 kts | 349° |
| 2026-04-29 09:00 | 60.25889 | 5.22983 | 689 ft | 139 kts | 349° |
| 2026-04-29 09:00 | 60.26830 | 5.22654 | 467 ft | 136 kts | 348° |
| 2026-04-29 09:01 | 60.27771 | 5.22339 | 281 ft | 136 kts | 349° |
| 2026-04-29 09:01 | 60.28644 | 5.22041 | 158 ft | 116 kts | 349° |
| 2026-04-29 09:01 | 60.29180 | 5.21872 | 155 ft | 59 kts | 351° |
| 2026-04-29 09:01 | 60.29382 | 5.21893 | 151 ft | 14 kts | 81° |